Observation data for Silverton on 11/14/2019      Previous  Date  Next       Current Mesonet Observations  Soil Data  Daily Summary Page  Observations in Plain Language
KSVS 140600Z 00010KT 01/M02 A3009 RMK A01 T00121018  RH  081%=      5-min Rain = 0
KSVS 140605Z 00010KT 02/M02 A3009 RMK A01 T00151016  RH  080%=      5-min Rain = 0
KSVS 140610Z 00010KT 02/M02 A3009 RMK A01 T00181016  RH  079%=      5-min Rain = 0
KSVS 140615Z 36009KT 02/M02 A301 RMK A01 T00191016  RH  078%=      5-min Rain = 0
KSVS 140620Z 36009KT 02/M02 A301 RMK A01 T00211015  RH  078%=      5-min Rain = 0
KSVS 140625Z 36009KT 02/M02 A301 RMK A01 T00211015  RH  078%=      5-min Rain = 0
KSVS 140630Z 00011KT 03/M01 A301 RMK A01 T00271013  RH  076%=      5-min Rain = 0
KSVS 140635Z 00011KT 03/M02 A3011 RMK A01 T00291015  RH  074%=      5-min Rain = 0
KSVS 140640Z 36010KT 03/M02 A3011 RMK A01 T00301016  RH  072%=      5-min Rain = 0
KSVS 140645Z 36010KT 03/M02 A3011 RMK A01 T00271018  RH  073%=      5-min Rain = 0
KSVS 140650Z 36010KT 02/M02 A3011 RMK A01 T00241019  RH  074%=      5-min Rain = 0
KSVS 140655Z 35009KT 03/M02 A3011 RMK A01 T00251019  RH  073%=      5-min Rain = 0
KSVS 140700Z 35010KT 03/M02 A3011 RMK A01 T00251020  RH  073%=      5-min Rain = 0
KSVS 140705Z 35010KT 03/M02 A3012 RMK A01 T00261020  RH  072%=      5-min Rain = 0
KSVS 140710Z 35011KT 03/M02 A3012 RMK A01 T00261020  RH  072%=      5-min Rain = 0
KSVS 140715Z 35011KT 03/M02 A3012 RMK A01 T00271021  RH  071%=      5-min Rain = 0
KSVS 140720Z 35011KT 03/M02 A3012 RMK A01 T00281022  RH  070%=      5-min Rain = 0
KSVS 140725Z 35010KT 02/M02 A3012 RMK A01 T00231024  RH  072%=      5-min Rain = 0
KSVS 140730Z 35011KT 02/M03 A3012 RMK A01 T00211025  RH  072%=      5-min Rain = 0
KSVS 140735Z 35010KT 02/M03 A3013 RMK A01 T00201026  RH  072%=      5-min Rain = 0
KSVS 140740Z 36010KT 02/M03 A3013 RMK A01 T00201026  RH  072%=      5-min Rain = 0
KSVS 140745Z 00010KT 02/M03 A3013 RMK A01 T00231026  RH  071%=      5-min Rain = 0
KSVS 140750Z 01009KT 02/M03 A3014 RMK A01 T00241027  RH  069%=      5-min Rain = 0
KSVS 140755Z 02010KT 02/M03 A3014 RMK A01 T00201029  RH  071%=      5-min Rain = 0
KSVS 140800Z 01010KT 02/M03 A3014 RMK A01 T00221028  RH  070%=      5-min Rain = 0
KSVS 140805Z 01010KT 03/M03 A3015 RMK A01 T00271027  RH  068%=      5-min Rain = 0
KSVS 140810Z 01010KT 03/M03 A3015 RMK A01 T00321027  RH  066%=      5-min Rain = 0
KSVS 140815Z 01011KT 03/M03 A3015 RMK A01 T00331029  RH  064%=      5-min Rain = 0
KSVS 140820Z 02011KT 04/M03 A3016 RMK A01 T00361032  RH  061%=      5-min Rain = 0
KSVS 140825Z 02012G18KT 04/M03 A3016 RMK A01 T00381034  RH  060%=      5-min Rain = 0
KSVS 140830Z 02011KT 04/M04 A3016 RMK A01 T00401035  RH  058%=      5-min Rain = 0
KSVS 140835Z 01012KT 04/M04 A3016 RMK A01 T00381037  RH  059%=      5-min Rain = 0
KSVS 140840Z 01011KT 04/M04 A3016 RMK A01 T00361037  RH  059%=      5-min Rain = 0
KSVS 140845Z 02010KT 04/M04 A3017 RMK A01 T00351038  RH  059%=      5-min Rain = 0
KSVS 140850Z 02010KT 03/M04 A3017 RMK A01 T00341039  RH  059%=      5-min Rain = 0
KSVS 140855Z 02010KT 03/M04 A3017 RMK A01 T00331039  RH  060%=      5-min Rain = 0
KSVS 140900Z 02010KT 03/M04 A3017 RMK A01 T00311039  RH  060%=      5-min Rain = 0
KSVS 140905Z 02010KT 03/M04 A3018 RMK A01 T00321039  RH  060%=      5-min Rain = 0
KSVS 140910Z 02010KT 03/M04 A3018 RMK A01 T00341038  RH  059%=      5-min Rain = 0
KSVS 140915Z 02011KT 04/M04 A3018 RMK A01 T00351038  RH  059%=      5-min Rain = 0
KSVS 140920Z 02011KT 04/M04 A3018 RMK A01 T00381038  RH  058%=      5-min Rain = 0
KSVS 140925Z 02011KT 04/M04 A3018 RMK A01 T00371038  RH  058%=      5-min Rain = 0
KSVS 140930Z 02010KT 04/M04 A3019 RMK A01 T00351038  RH  059%=      5-min Rain = 0
KSVS 140935Z 02011KT 03/M04 A3019 RMK A01 T00331038  RH  060%=      5-min Rain = 0
KSVS 140940Z 02011KT 03/M04 A3019 RMK A01 T00331039  RH  060%=      5-min Rain = 0
KSVS 140945Z 02011KT 03/M04 A3019 RMK A01 T00311039  RH  060%=      5-min Rain = 0
KSVS 140950Z 02011KT 03/M04 A3019 RMK A01 T00321038  RH  060%=      5-min Rain = 0
KSVS 140955Z 02010KT 03/M04 A3019 RMK A01 T00331038  RH  060%=      5-min Rain = 0
KSVS 141000Z 02010KT 03/M04 A302 RMK A01 T00321037  RH  061%=      5-min Rain = 0
KSVS 141005Z 02010KT 03/M04 A302 RMK A01 T00321035  RH  062%=      5-min Rain = 0
KSVS 141010Z 02010KT 03/M03 A302 RMK A01 T00341033  RH  062%=      5-min Rain = 0
KSVS 141015Z 02010KT 03/M03 A302 RMK A01 T00321034  RH  062%=      5-min Rain = 0
KSVS 141020Z 02010KT 03/M03 A302 RMK A01 T00321034  RH  062%=      5-min Rain = 0
KSVS 141025Z 02011KT 03/M03 A302 RMK A01 T00331034  RH  062%=      5-min Rain = 0
KSVS 141030Z 02011KT 03/M03 A302 RMK A01 T00331034  RH  062%=      5-min Rain = 0
KSVS 141035Z 02011KT 03/M03 A302 RMK A01 T00331034  RH  062%=      5-min Rain = 0
KSVS 141040Z 02011KT 03/M03 A3021 RMK A01 T00321033  RH  063%=      5-min Rain = 0
KSVS 141045Z 02011KT 03/M03 A3021 RMK A01 T00311033  RH  063%=      5-min Rain = 0
KSVS 141050Z 02011KT 03/M03 A3021 RMK A01 T00311032  RH  064%=      5-min Rain = 0
KSVS 141055Z 03011KT 03/M03 A3021 RMK A01 T00311030  RH  065%=      5-min Rain = 0
KSVS 141100Z 02011KT 03/M03 A3021 RMK A01 T00311030  RH  065%=      5-min Rain = 0
KSVS 141105Z 03010KT 03/M03 A3021 RMK A01 T00301030  RH  065%=      5-min Rain = 0
KSVS 141110Z 03010KT 03/M03 A3021 RMK A01 T00271030  RH  066%=      5-min Rain = 0
KSVS 141115Z 03009KT 03/M03 A3022 RMK A01 T00271030  RH  066%=      5-min Rain = 0
KSVS 141120Z 03009KT 03/M03 A3022 RMK A01 T00251029  RH  068%=      5-min Rain = 0
KSVS 141125Z 03009KT 02/M03 A3022 RMK A01 T00241029  RH  068%=      5-min Rain = 0
KSVS 141130Z 03009KT 02/M03 A3023 RMK A01 T00241028  RH  069%=      5-min Rain = 0
KSVS 141135Z 03009KT 02/M03 A3023 RMK A01 T00241027  RH  070%=      5-min Rain = 0
KSVS 141140Z 04008KT 02/M03 A3023 RMK A01 T00231027  RH  070%=      5-min Rain = 0
KSVS 141145Z 03009KT 02/M03 A3023 RMK A01 T00231027  RH  070%=      5-min Rain = 0
KSVS 141150Z 03009KT 02/M03 A3023 RMK A01 T00241025  RH  070%=      5-min Rain = 0
KSVS 141155Z 03010KT 03/M02 A3023 RMK A01 T00261024  RH  070%=      5-min Rain = 0
KSVS 141200Z 03010KT 03/M02 A3024 RMK A01 T00261024  RH  070%=      5-min Rain = 0
KSVS 141205Z 03009KT 02/M03 A3024 RMK A01 T00231026  RH  070%=      5-min Rain = 0
KSVS 141210Z 03009KT 02/M03 A3025 RMK A01 T00191027  RH  072%=      5-min Rain = 0
KSVS 141215Z 03010G15KT 02/M03 A3025 RMK A01 T00201026  RH  072%=      5-min Rain = 0
KSVS 141220Z 03010KT 02/M03 A3025 RMK A01 T00211025  RH  072%=      5-min Rain = 0
KSVS 141225Z 03009KT 02/M03 A3025 RMK A01 T00181026  RH  073%=      5-min Rain = 0
KSVS 141230Z 03009KT 02/M03 A3026 RMK A01 T00171027  RH  073%=      5-min Rain = 0
KSVS 141235Z 03008KT 02/M03 A3026 RMK A01 T00151028  RH  074%=      5-min Rain = 0
KSVS 141240Z 04008KT 02/M03 A3026 RMK A01 T00151027  RH  074%=      5-min Rain = 0
KSVS 141245Z 03007KT 01/M03 A3027 RMK A01 T00141028  RH  074%=      5-min Rain = 0
KSVS 141250Z 03008KT 01/M03 A3028 RMK A01 T00141027  RH  075%=      5-min Rain = 0
KSVS 141255Z 03008KT 02/M03 A3028 RMK A01 T00151026  RH  075%=      5-min Rain = 0
KSVS 141300Z 03007KT 02/M03 A3028 RMK A01 T00151026  RH  075%=      5-min Rain = 0
KSVS 141305Z 03008KT 02/M03 A3029 RMK A01 T00151025  RH  075%=      5-min Rain = 0
KSVS 141310Z 03009KT 02/M02 A3029 RMK A01 T00171023  RH  076%=      5-min Rain = 0
KSVS 141315Z 03008KT 02/M02 A3029 RMK A01 T00161023  RH  076%=      5-min Rain = 0
KSVS 141320Z 03008KT 02/M02 A3029 RMK A01 T00171022  RH  076%=      5-min Rain = 0
KSVS 141325Z 03008KT 02/M02 A303 RMK A01 T00171022  RH  076%=      5-min Rain = 0
KSVS 141330Z 03008KT 02/M02 A303 RMK A01 T00161023  RH  076%=      5-min Rain = 0
KSVS 141335Z 03007KT 02/M02 A3031 RMK A01 T00151023  RH  076%=      5-min Rain = 0
KSVS 141340Z 03006KT 02/M02 A3031 RMK A01 T00151023  RH  077%=      5-min Rain = 0
KSVS 141345Z 03006KT 02/M02 A3031 RMK A01 T00171021  RH  076%=      5-min Rain = 0
KSVS 141350Z 03005KT 02/M02 A3031 RMK A01 T00191020  RH  076%=      5-min Rain = 0
KSVS 141355Z 03006KT 02/M02 A3032 RMK A01 T00231018  RH  075%=      5-min Rain = 0
KSVS 141400Z 03006KT 03/M02 A3032 RMK A01 T00271017  RH  074%=      5-min Rain = 0
KSVS 141405Z 04006KT 03/M02 A3032 RMK A01 T00301016  RH  073%=      5-min Rain = 0
KSVS 141410Z 04006KT 03/M02 A3033 RMK A01 T00321015  RH  072%=      5-min Rain = 0
KSVS 141415Z 05006KT 04/M01 A3033 RMK A01 T00361013  RH  071%=      5-min Rain = 0
KSVS 141420Z 05007KT 04/M01 A3033 RMK A01 T00371014  RH  070%=      5-min Rain = 0
KSVS 141425Z 05007KT 04/M01 A3033 RMK A01 T00381014  RH  069%=      5-min Rain = 0
KSVS 141430Z 04008KT 04/M01 A3034 RMK A01 T00401013  RH  069%=      5-min Rain = 0
KSVS 141435Z 04008KT 04/M01 A3034 RMK A01 T00441011  RH  068%=      5-min Rain = 0
KSVS 141440Z 04008KT 05/M01 A3034 RMK A01 T00451011  RH  068%=      5-min Rain = 0
KSVS 141445Z 05009KT 05/M01 A3034 RMK A01 T00471010  RH  067%=      5-min Rain = 0
KSVS 141450Z 04010KT 05/M01 A3035 RMK A01 T00491009  RH  067%=      5-min Rain = 0
KSVS 141455Z 04009KT 05/M01 A3035 RMK A01 T00511008  RH  066%=      5-min Rain = 0
KSVS 141500Z 05011KT 05/M01 A3035 RMK A01 T00521009  RH  065%=      5-min Rain = 0
KSVS 141505Z 04010KT 05/M01 A3036 RMK A01 T00531009  RH  065%=      5-min Rain = 0
KSVS 141510Z 04010KT 06/M01 A3036 RMK A01 T00551008  RH  064%=      5-min Rain = 0
KSVS 141515Z 04011KT 06/M01 A3036 RMK A01 T00551009  RH  064%=      5-min Rain = 0
KSVS 141520Z 04009KT 06/M01 A3036 RMK A01 T00561008  RH  064%=      5-min Rain = 0
KSVS 141525Z 04011KT 06/M01 A3036 RMK A01 T00581008  RH  063%=      5-min Rain = 0
KSVS 141530Z 03012KT 06/M01 A3036 RMK A01 T00591009  RH  062%=      5-min Rain = 0
KSVS 141535Z 04012KT 06/M01 A3037 RMK A01 T00581009  RH  063%=      5-min Rain = 0
KSVS 141540Z 03012G18KT 06/M01 A3037 RMK A01 T00611009  RH  062%=      5-min Rain = 0
KSVS 141545Z 04014KT 06/M01 A3038 RMK A01 T00611010  RH  061%=      5-min Rain = 0
KSVS 141550Z 03012KT 06/M01 A3037 RMK A01 T00621010  RH  061%=      5-min Rain = 0
KSVS 141555Z 04013KT 06/M01 A3038 RMK A01 T00641010  RH  060%=      5-min Rain = 0
KSVS 141600Z 03013KT 07/M01 A3038 RMK A01 T00671010  RH  059%=      5-min Rain = 0
KSVS 141605Z 04012KT 07/M01 A3038 RMK A01 T00711009  RH  057%=      5-min Rain = 0
KSVS 141610Z 04013KT 07/M01 A3038 RMK A01 T00701012  RH  056%=      5-min Rain = 0
KSVS 141615Z 04012KT 07/M01 A3038 RMK A01 T00711013  RH  056%=      5-min Rain = 0
KSVS 141620Z 04012KT 08/M01 A3038 RMK A01 T00751013  RH  054%=      5-min Rain = 0
KSVS 141625Z 04013KT 08/M01 A3038 RMK A01 T00761013  RH  054%=      5-min Rain = 0
KSVS 141630Z 04013G18KT 08/M01 A3039 RMK A01 T00761014  RH  053%=      5-min Rain = 0
KSVS 141635Z 03012G17KT 08/M01 A3039 RMK A01 T00761014  RH  053%=      5-min Rain = 0
KSVS 141640Z 05013KT 08/M01 A3039 RMK A01 T00791014  RH  052%=      5-min Rain = 0
KSVS 141645Z 04012G18KT 08/M01 A3039 RMK A01 T00831012  RH  052%=      5-min Rain = 0
KSVS 141650Z 04010KT 08/M01 A3039 RMK A01 T00831013  RH  051%=      5-min Rain = 0
KSVS 141655Z 03013KT 08/M01 A3039 RMK A01 T00831014  RH  051%=      5-min Rain = 0
KSVS 141700Z 04012KT 08/M02 A3039 RMK A01 T00811015  RH  051%=      5-min Rain = 0
KSVS 141705Z 04012KT 08/M01 A3039 RMK A01 T00831013  RH  051%=      5-min Rain = 0
KSVS 141710Z 04013KT 08/M02 A304 RMK A01 T00821015  RH  051%=      5-min Rain = 0
KSVS 141715Z 04012KT 08/M02 A304 RMK A01 T00841015  RH  050%=      5-min Rain = 0
KSVS 141720Z 03012G17KT 09/M01 A304 RMK A01 T00851014  RH  050%=      5-min Rain = 0
KSVS 141725Z 03012KT 08/M01 A304 RMK A01 T00841014  RH  050%=      5-min Rain = 0
KSVS 141730Z 03012G17KT 09/M01 A3039 RMK A01 T00861014  RH  050%=      5-min Rain = 0
KSVS 141735Z 03012KT 09/M02 A3039 RMK A01 T00871015  RH  049%=      5-min Rain = 0
KSVS 141740Z 03011G16KT 09/M02 A3039 RMK A01 T00861015  RH  050%=      5-min Rain = 0
KSVS 141745Z 05011KT 09/M01 A3039 RMK A01 T00891014  RH  049%=      5-min Rain = 0
KSVS 141750Z 04011KT 09/M01 A3039 RMK A01 T00941013  RH  048%=      5-min Rain = 0
KSVS 141755Z 04011G16KT 10/M01 A3039 RMK A01 T00971013  RH  047%=      5-min Rain = 0
KSVS 141800Z 03012KT 10/M02 A3039 RMK A01 T00981015  RH  046%=      5-min Rain = 0
KSVS 141805Z 04011KT 10/M02 A3039 RMK A01 T00981016  RH  045%=      5-min Rain = 0
KSVS 141810Z 04010G16KT 10/M02 A3039 RMK A01 T00981016  RH  045%=      5-min Rain = 0
KSVS 141815Z 05009KT 10/M02 A3038 RMK A01 T01001015  RH  045%=      5-min Rain = 0
KSVS 141820Z 02010G15KT 10/M02 A3038 RMK A01 T01031015  RH  044%=      5-min Rain = 0
KSVS 141825Z 04009KT 11/M02 A3038 RMK A01 T01051015  RH  044%=      5-min Rain = 0
KSVS 141830Z 03009KT 10/M02 A3037 RMK A01 T01021016  RH  044%=      5-min Rain = 0
KSVS 141835Z 03010G15KT 11/M02 A3037 RMK A01 T01061015  RH  043%=      5-min Rain = 0
KSVS 141840Z 05009KT 11/M02 A3037 RMK A01 T01061015  RH  043%=      5-min Rain = 0
KSVS 141845Z 05009G14KT 11/M02 A3037 RMK A01 T01071015  RH  043%=      5-min Rain = 0
KSVS 141850Z 04008G13KT 11/M01 A3037 RMK A01 T01081014  RH  043%=      5-min Rain = 0
KSVS 141855Z 03009G17KT 11/M02 A3037 RMK A01 T01091015  RH  043%=      5-min Rain = 0
KSVS 141900Z 04008G14KT 11/M02 A3037 RMK A01 T01071015  RH  043%=      5-min Rain = 0
KSVS 141905Z 05010KT 11/M02 A3036 RMK A01 T01111015  RH  042%=      5-min Rain = 0
KSVS 141910Z 04010G15KT 11/M01 A3036 RMK A01 T01141014  RH  041%=      5-min Rain = 0
KSVS 141915Z 05010G16KT 11/M02 A3036 RMK A01 T01131015  RH  041%=      5-min Rain = 0
KSVS 141920Z 04009G15KT 11/M02 A3036 RMK A01 T01121016  RH  041%=      5-min Rain = 0
KSVS 141925Z 04010G17KT 11/M02 A3036 RMK A01 T01141016  RH  041%=      5-min Rain = 0
KSVS 141930Z 04008G13KT 11/M02 A3036 RMK A01 T01141017  RH  041%=      5-min Rain = 0
KSVS 141935Z 03010G17KT 11/M02 A3035 RMK A01 T01141017  RH  040%=      5-min Rain = 0
KSVS 141940Z 04011G16KT 12/M02 A3035 RMK A01 T01161018  RH  040%=      5-min Rain = 0
KSVS 141945Z 05009G16KT 12/M02 A3035 RMK A01 T01151019  RH  040%=      5-min Rain = 0
KSVS 141950Z 05009G15KT 12/M02 A3035 RMK A01 T01171017  RH  040%=      5-min Rain = 0
KSVS 141955Z 04009KT 12/M02 A3035 RMK A01 T01171017  RH  040%=      5-min Rain = 0
KSVS 142000Z 05008G19KT 12/M02 A3035 RMK A01 T01191016  RH  039%=      5-min Rain = 0
KSVS 142005Z 04008KT 12/M02 A3035 RMK A01 T01151018  RH  040%=      5-min Rain = 0
KSVS 142010Z 04008G13KT 12/M02 A3035 RMK A01 T01171018  RH  039%=      5-min Rain = 0
KSVS 142015Z 04007KT 12/M02 A3035 RMK A01 T01171017  RH  040%=      5-min Rain = 0
KSVS 142020Z 04008KT 12/M02 A3034 RMK A01 T01181017  RH  039%=      5-min Rain = 0
KSVS 142025Z 04008KT 12/M02 A3034 RMK A01 T01201019  RH  038%=      5-min Rain = 0
KSVS 142030Z 03007KT 12/M02 A3034 RMK A01 T01201018  RH  039%=      5-min Rain = 0
KSVS 142035Z 06009KT 12/M02 A3034 RMK A01 T01201018  RH  039%=      5-min Rain = 0
KSVS 142040Z 04006G13KT 12/M02 A3034 RMK A01 T01221016  RH  039%=      5-min Rain = 0
KSVS 142045Z 04008G13KT 12/M02 A3034 RMK A01 T01221017  RH  038%=      5-min Rain = 0
KSVS 142050Z 05008G14KT 12/M02 A3034 RMK A01 T01191017  RH  039%=      5-min Rain = 0
KSVS 142055Z 03007KT 12/M02 A3034 RMK A01 T01231016  RH  038%=      5-min Rain = 0
KSVS 142100Z 03006G11KT 12/M02 A3034 RMK A01 T01211017  RH  038%=      5-min Rain = 0
KSVS 142105Z 04011KT 12/M02 A3034 RMK A01 T01221017  RH  039%=      5-min Rain = 0
KSVS 142110Z 06007KT 12/M02 A3034 RMK A01 T01201017  RH  039%=      5-min Rain = 0
KSVS 142115Z 05007G12KT 12/M02 A3034 RMK A01 T01191017  RH  039%=      5-min Rain = 0
KSVS 142120Z 06007KT 12/M02 A3034 RMK A01 T01191017  RH  039%=      5-min Rain = 0
KSVS 142125Z 04008KT 12/M02 A3034 RMK A01 T01201017  RH  039%=      5-min Rain = 0
KSVS 142130Z 05008KT 12/M02 A3034 RMK A01 T01191017  RH  039%=      5-min Rain = 0
KSVS 142135Z 04006KT 12/M02 A3034 RMK A01 T01191017  RH  039%=      5-min Rain = 0
KSVS 142140Z 04006KT 12/M02 A3034 RMK A01 T01211017  RH  039%=      5-min Rain = 0
KSVS 142145Z 07006KT 12/M02 A3034 RMK A01 T01191017  RH  039%=      5-min Rain = 0
KSVS 142150Z 06007KT 12/M02 A3034 RMK A01 T01201017  RH  039%=      5-min Rain = 0
KSVS 142155Z 06008KT 12/M02 A3034 RMK A01 T01211017  RH  039%=      5-min Rain = 0
KSVS 142200Z 08007KT 12/M02 A3034 RMK A01 T01201018  RH  039%=      5-min Rain = 0
KSVS 142205Z 07007KT 12/M02 A3034 RMK A01 T01171018  RH  039%=      5-min Rain = 0
KSVS 142210Z 07006KT 12/M02 A3034 RMK A01 T01191017  RH  039%=      5-min Rain = 0
KSVS 142215Z 05006KT 12/M02 A3034 RMK A01 T01191018  RH  039%=      5-min Rain = 0
KSVS 142220Z 05008KT 12/M02 A3034 RMK A01 T01171019  RH  039%=      5-min Rain = 0
KSVS 142225Z 04006KT 12/M02 A3034 RMK A01 T01161018  RH  039%=      5-min Rain = 0
KSVS 142230Z 06006KT 12/M02 A3034 RMK A01 T01151019  RH  040%=      5-min Rain = 0
KSVS 142235Z 05005KT 12/M02 A3035 RMK A01 T01161019  RH  039%=      5-min Rain = 0
KSVS 142240Z 06004KT 11/M02 A3034 RMK A01 T01141019  RH  040%=      5-min Rain = 0
KSVS 142245Z 06005KT 11/M02 A3034 RMK A01 T01141019  RH  040%=      5-min Rain = 0
KSVS 142250Z 09006KT 11/M02 A3034 RMK A01 T01121018  RH  041%=      5-min Rain = 0
KSVS 142255Z 09006KT 11/M02 A3034 RMK A01 T01101019  RH  041%=      5-min Rain = 0
KSVS 142300Z 07004KT 11/M02 A3035 RMK A01 T01091019  RH  041%=      5-min Rain = 0
KSVS 142305Z 07004KT 11/M02 A3035 RMK A01 T01081019  RH  041%=      5-min Rain = 0
KSVS 142310Z 09006KT 10/M02 A3035 RMK A01 T01041019  RH  043%=      5-min Rain = 0
KSVS 142315Z 09005KT 10/M02 A3035 RMK A01 T01011019  RH  044%=      5-min Rain = 0
KSVS 142320Z 10005KT 10/M02 A3035 RMK A01 T00961019  RH  045%=      5-min Rain = 0
KSVS 142325Z 10005KT 09/M02 A3035 RMK A01 T00911020  RH  046%=      5-min Rain = 0
KSVS 142330Z 10005KT 09/M02 A3035 RMK A01 T00851020  RH  048%=      5-min Rain = 0
KSVS 142335Z 10005KT 08/M02 A3035 RMK A01 T00801021  RH  049%=      5-min Rain = 0
KSVS 142340Z 11005KT 07/M02 A3035 RMK A01 T00731022  RH  051%=      5-min Rain = 0
KSVS 142345Z 13005KT 07/M02 A3035 RMK A01 T00711022  RH  052%=      5-min Rain = 0
KSVS 142350Z 13005KT 07/M02 A3036 RMK A01 T00661023  RH  053%=      5-min Rain = 0
KSVS 142355Z 13005KT 07/M02 A3036 RMK A01 T00651022  RH  054%=      5-min Rain = 0
KSVS 150000Z 13005KT 06/M02 A3036 RMK A01 T00601023  RH  055%=      5-min Rain = 0
KSVS 150005Z 14005KT 06/M02 A3036 RMK A01 T00571024  RH  056%=      5-min Rain = 0
KSVS 150010Z 13005KT 06/M03 A3036 RMK A01 T00551025  RH  057%=      5-min Rain = 0
KSVS 150015Z 13005KT 06/M03 A3037 RMK A01 T00551025  RH  056%=      5-min Rain = 0
KSVS 150020Z 13005KT 05/M03 A3037 RMK A01 T00531026  RH  057%=      5-min Rain = 0
KSVS 150025Z 13005KT 05/M02 A3037 RMK A01 T00531023  RH  059%=      5-min Rain = 0
KSVS 150030Z 14005KT 05/M02 A3038 RMK A01 T00521024  RH  059%=      5-min Rain = 0
KSVS 150035Z 14005KT 05/M03 A3038 RMK A01 T00471028  RH  058%=      5-min Rain = 0
KSVS 150040Z 14005KT 05/M03 A3038 RMK A01 T00471027  RH  059%=      5-min Rain = 0
KSVS 150045Z 13005KT 04/M03 A3038 RMK A01 T00441028  RH  060%=      5-min Rain = 0
KSVS 150050Z 14005KT 04/M03 A3038 RMK A01 T00431025  RH  061%=      5-min Rain = 0
KSVS 150055Z 15006KT 04/M03 A3038 RMK A01 T00421026  RH  062%=      5-min Rain = 0
KSVS 150100Z 15006KT 04/M03 A3039 RMK A01 T00401027  RH  062%=      5-min Rain = 0
KSVS 150105Z 15006KT 04/M03 A3039 RMK A01 T00401027  RH  062%=      5-min Rain = 0
KSVS 150110Z 15006KT 04/M03 A3039 RMK A01 T00371029  RH  063%=      5-min Rain = 0
KSVS 150115Z 15005KT 04/M03 A3039 RMK A01 T00351029  RH  064%=      5-min Rain = 0
KSVS 150120Z 16005KT 04/M03 A3039 RMK A01 T00401025  RH  063%=      5-min Rain = 0
KSVS 150125Z 17005KT 04/M02 A3039 RMK A01 T00411024  RH  063%=      5-min Rain = 0
KSVS 150130Z 17005KT 04/M03 A3039 RMK A01 T00381025  RH  064%=      5-min Rain = 0
KSVS 150135Z 17006KT 05/M02 A3039 RMK A01 T00461020  RH  063%=      5-min Rain = 0
KSVS 150140Z 17005KT 05/M02 A3039 RMK A01 T00451023  RH  062%=      5-min Rain = 0
KSVS 150145Z 17005KT 04/M02 A3039 RMK A01 T00441023  RH  063%=      5-min Rain = 0
KSVS 150150Z 18004KT 03/M03 A304 RMK A01 T00331027  RH  065%=      5-min Rain = 0
KSVS 150155Z 18004KT 03/M03 A3039 RMK A01 T00281029  RH  066%=      5-min Rain = 0
KSVS 150200Z 17005KT 03/M03 A3039 RMK A01 T00311026  RH  067%=      5-min Rain = 0
KSVS 150205Z 18006KT 04/M02 A3039 RMK A01 T00381021  RH  066%=      5-min Rain = 0
KSVS 150210Z 17006KT 04/M03 A3039 RMK A01 T00361025  RH  065%=      5-min Rain = 0
KSVS 150215Z 18005KT 03/M03 A3039 RMK A01 T00301027  RH  066%=      5-min Rain = 0
KSVS 150220Z 18005KT 03/M03 A304 RMK A01 T00281026  RH  068%=      5-min Rain = 0
KSVS 150225Z 18005KT 03/M03 A304 RMK A01 T00271027  RH  068%=      5-min Rain = 0
KSVS 150230Z 18006KT 02/M03 A304 RMK A01 T00181033  RH  069%=      5-min Rain = 0
KSVS 150235Z 18006KT 02/M03 A304 RMK A01 T00151034  RH  071%=      5-min Rain = 0
KSVS 150240Z 19006KT 01/M04 A304 RMK A01 T00101037  RH  072%=      5-min Rain = 0
KSVS 150245Z 18006KT 01/M03 A304 RMK A01 T00111031  RH  074%=      5-min Rain = 0
KSVS 150250Z 18005KT 02/M03 A304 RMK A01 T00171029  RH  072%=      5-min Rain = 0
KSVS 150255Z 18006KT 03/M02 A304 RMK A01 T00291024  RH  069%=      5-min Rain = 0
KSVS 150300Z 17006KT 03/M03 A3041 RMK A01 T00251031  RH  067%=      5-min Rain = 0
KSVS 150305Z 18006KT 02/M03 A3041 RMK A01 T00211032  RH  068%=      5-min Rain = 0
KSVS 150310Z 20005KT 02/M03 A3041 RMK A01 T00171034  RH  069%=      5-min Rain = 0
KSVS 150315Z 20005KT 01/M04 A3041 RMK A01 T00071038  RH  072%=      5-min Rain = 0
KSVS 150320Z 21006KT 01/M04 A3041 RMK A01 T00051036  RH  074%=      5-min Rain = 0
KSVS 150325Z 21006KT 00/M04 A3041 RMK A01 T00031036  RH  075%=      5-min Rain = 0
KSVS 150330Z 21007KT 00/M04 A3041 RMK A01 T00011036  RH  077%=      5-min Rain = 0
KSVS 150335Z 20007KT 00/M03 A3041 RMK A01 T00041032  RH  077%=      5-min Rain = 0
KSVS 150340Z 19007KT 01/M03 A3041 RMK A01 T00051032  RH  076%=      5-min Rain = 0
KSVS 150345Z 19006KT 01/M03 A3041 RMK A01 T00091030  RH  076%=      5-min Rain = 0
KSVS 150350Z 19006KT 01/M03 A3041 RMK A01 T00101032  RH  074%=      5-min Rain = 0
KSVS 150355Z 20007KT 00/M04 A3041 RMK A01 T00041037  RH  075%=      5-min Rain = 0
KSVS 150400Z 20007KT 00/M04 A3041 RMK A01 T00011037  RH  076%=      5-min Rain = 0
KSVS 150405Z 20007KT 01/M04 A3041 RMK A01 T00051036  RH  074%=      5-min Rain = 0
KSVS 150410Z 20007KT 00/M04 A3041 RMK A01 T00021040  RH  074%=      5-min Rain = 0
KSVS 150415Z 20007KT M00/M04 A3041 RMK A01 T10011042  RH  075%=      5-min Rain = 0
KSVS 150420Z 20007KT 00/M04 A3041 RMK A01 T00011037  RH  076%=      5-min Rain = 0
KSVS 150425Z 19007KT 01/M03 A3041 RMK A01 T00081033  RH  075%=      5-min Rain = 0
KSVS 150430Z 20008KT 00/M04 A3041 RMK A01 T00031038  RH  074%=      5-min Rain = 0
KSVS 150435Z 20008KT M00/M04 A3041 RMK A01 T10041042  RH  076%=      5-min Rain = 0
KSVS 150440Z 20008KT M01/M04 A3041 RMK A01 T10071041  RH  078%=      5-min Rain = 0
KSVS 150445Z 21007KT M01/M04 A3041 RMK A01 T10051038  RH  079%=      5-min Rain = 0
KSVS 150450Z 20008KT M00/M04 A3041 RMK A01 T10031037  RH  079%=      5-min Rain = 0
KSVS 150455Z 20008KT M00/M04 A3041 RMK A01 T10041038  RH  078%=      5-min Rain = 0
KSVS 150500Z 21008KT M00/M04 A3041 RMK A01 T10041037  RH  079%=      5-min Rain = 0
KSVS 150505Z 22008KT M01/M04 A3041 RMK A01 T10091040  RH  080%=      5-min Rain = 0
KSVS 150510Z 23008KT M01/M04 A3041 RMK A01 T10101038  RH  082%=      5-min Rain = 0
KSVS 150515Z 23008KT M01/M04 A3041 RMK A01 T10081035  RH  083%=      5-min Rain = 0
KSVS 150520Z 23009KT M01/M03 A3041 RMK A01 T10071033  RH  083%=      5-min Rain = 0
KSVS 150525Z 23009KT M00/M03 A3041 RMK A01 T10041031  RH  083%=      5-min Rain = 0
KSVS 150530Z 23008KT M01/M03 A3042 RMK A01 T10051032  RH  082%=      5-min Rain = 0
KSVS 150535Z 23009KT M01/M03 A3042 RMK A01 T10071033  RH  082%=      5-min Rain = 0
KSVS 150540Z 23008KT M01/M03 A3042 RMK A01 T10081033  RH  083%=      5-min Rain = 0
KSVS 150545Z 24007KT M01/M04 A3042 RMK A01 T10121037  RH  084%=      5-min Rain = 0
KSVS 150550Z 25006KT M02/M04 A3041 RMK A01 T10151039  RH  084%=      5-min Rain = 0
KSVS 150555Z 25006KT M02/M04 A3041 RMK A01 T10151038  RH  085%=      5-min Rain = 0

Page generated in 0.0124 seconds.